Time;durP1;ratioP1;P1;durP2;ratioP2;P2;SDS_P1;SDS_P2;PMS_P1;PMS_P2;Temp;Humidity;BMP_temperature;BMP_pressure;BME280_temperature;BME280_humidity;BME280_pressure;Samples;Min_cycle;Max_cycle;Signal;HPM_P1;HPM_P2
2022/05/05 00:01:29;;;;;;;12.90;5.70;;;12.90;99.90;;;;;;5051896;28;20624;-49
2022/05/05 00:03:55;;;;;;;13.05;6.07;;;12.90;99.90;;;;;;5051577;28;20275;-52
2022/05/05 00:06:21;;;;;;;11.18;5.78;;;12.90;99.90;;;;;;5052213;28;20253;-50
2022/05/05 00:08:46;;;;;;;15.27;6.85;;;12.80;99.90;;;;;;5058875;28;20209;-49
2022/05/05 00:16:40;;;;;;;15.43;6.53;;;12.70;99.90;;;;;;5058444;28;20172;-49
2022/05/05 00:19:05;;;;;;;18.38;6.68;;;12.60;99.90;;;;;;5058633;28;20552;-49
2022/05/05 00:21:31;;;;;;;17.02;7.35;;;12.50;99.90;;;;;;5058715;28;20166;-49
2022/05/05 00:23:56;;;;;;;9.00;6.28;;;12.60;99.90;;;;;;5058542;28;20209;-49
2022/05/05 00:26:22;;;;;;;13.15;6.32;;;12.50;99.90;;;;;;5058339;28;20499;-49
2022/05/05 00:28:48;;;;;;;18.88;7.05;;;12.50;99.90;;;;;;5058441;28;20174;-49
2022/05/05 00:31:13;;;;;;;18.88;6.97;;;12.50;99.90;;;;;;5058299;28;20628;-47
2022/05/05 00:33:39;;;;;;;10.60;7.18;;;12.60;99.90;;;;;;5058327;28;20201;-49
2022/05/05 00:36:05;;;;;;;15.65;6.85;;;12.50;99.90;;;;;;5058599;28;20249;-50
2022/05/05 00:38:30;;;;;;;16.58;7.35;;;12.50;99.90;;;;;;5058220;28;20170;-47
2022/05/05 00:40:56;;;;;;;13.43;7.65;;;12.60;99.90;;;;;;5058241;28;20220;-48
2022/05/05 00:43:23;;;;;;;14.23;6.90;;;12.60;99.90;;;;;;5058079;28;20213;-49
2022/05/05 00:45:49;;;;;;;13.40;6.95;;;12.70;99.90;;;;;;5058446;28;20174;-49
2022/05/05 00:48:16;;;;;;;14.43;7.60;;;12.70;99.90;;;;;;5058215;28;20208;-48
2022/05/05 00:50:41;;;;;;;16.58;7.03;;;12.70;99.90;;;;;;5056928;28;20166;-49
2022/05/05 00:53:07;;;;;;;12.98;7.38;;;12.70;99.90;;;;;;5058088;28;20693;-47
2022/05/05 00:55:35;;;;;;;15.43;8.23;;;12.70;99.90;;;;;;5058447;28;20171;-49
2022/05/05 00:58:03;;;;;;;13.57;7.50;;;12.70;99.90;;;;;;5058296;28;20178;-50
2022/05/05 01:00:30;;;;;;;14.68;7.25;;;12.70;99.90;;;;;;5058346;28;20170;-49
2022/05/05 01:02:59;;;;;;;17.55;7.82;;;12.60;99.90;;;;;;5057824;28;20687;-50
2022/05/05 01:05:25;;;;;;;14.95;8.20;;;12.70;99.90;;;;;;5057960;28;20202;-48
2022/05/05 01:07:51;;;;;;;14.38;7.53;;;12.60;99.90;;;;;;5057995;28;20590;-50
2022/05/05 01:10:17;;;;;;;18.80;8.80;;;12.70;99.90;;;;;;5057953;28;20246;-47
2022/05/05 01:12:42;;;;;;;15.55;8.02;;;12.60;99.90;;;;;;5058202;28;20166;-48
2022/05/05 01:15:09;;;;;;;14.23;7.82;;;12.60;99.90;;;;;;5057859;28;20170;-48
2022/05/05 01:17:34;;;;;;;12.30;7.93;;;12.50;99.90;;;;;;5058504;28;20167;-48
2022/05/05 01:20:14;;;;;;;11.77;6.90;;;12.50;99.90;;;;;;5053994;28;20179;-49
2022/05/05 01:22:39;;;;;;;14.00;8.10;;;12.40;99.90;;;;;;5054609;28;20240;-48
2022/05/05 01:30:34;;;;;;;15.30;8.55;;;12.40;99.90;;;;;;5055183;28;20209;-49
2022/05/05 01:32:59;;;;;;;16.77;7.78;;;12.50;99.90;;;;;;5054559;28;20202;-50
2022/05/05 01:35:25;;;;;;;15.43;7.60;;;12.60;99.90;;;;;;5054443;28;20175;-49
2022/05/05 01:37:50;;;;;;;17.85;7.35;;;12.60;99.90;;;;;;5054398;28;20159;-49
2022/05/05 01:40:16;;;;;;;16.17;7.68;;;12.70;99.90;;;;;;5054366;28;20166;-51
2022/05/05 01:42:42;;;;;;;16.38;7.82;;;12.70;99.90;;;;;;5054221;28;20206;-51
2022/05/05 01:45:09;;;;;;;20.73;8.23;;;12.60;99.90;;;;;;5054273;28;20216;-48
2022/05/05 01:47:36;;;;;;;16.70;8.18;;;12.50;99.90;;;;;;5054787;28;20236;-49
2022/05/05 01:50:03;;;;;;;14.70;7.53;;;12.50;99.90;;;;;;5054686;28;20171;-50
2022/05/05 01:52:28;;;;;;;14.85;7.65;;;12.60;99.90;;;;;;5052883;28;20170;-48
2022/05/05 01:54:54;;;;;;;20.15;8.48;;;12.60;99.90;;;;;;5054041;28;20171;-50
2022/05/05 01:57:19;;;;;;;13.95;7.18;;;12.60;99.90;;;;;;5054003;28;20629;-48
2022/05/05 01:59:45;;;;;;;17.88;7.72;;;12.60;99.90;;;;;;5054115;28;20198;-49
2022/05/05 02:02:10;;;;;;;14.43;8.82;;;12.60;99.90;;;;;;5053820;28;20173;-50
2022/05/05 02:04:36;;;;;;;16.98;8.07;;;12.50;99.90;;;;;;5053939;28;20230;-51
2022/05/05 02:07:03;;;;;;;14.43;8.65;;;12.60;99.90;;;;;;5054252;28;20548;-51
2022/05/05 02:09:30;;;;;;;13.82;8.32;;;12.60;99.90;;;;;;5054118;28;20270;-50
2022/05/05 02:11:56;;;;;;;12.82;7.95;;;12.50;99.90;;;;;;5053835;28;21140;-48
2022/05/05 02:14:24;;;;;;;14.77;7.93;;;12.50;99.90;;;;;;5053747;28;20254;-50
2022/05/05 02:16:52;;;;;;;13.68;8.32;;;12.50;99.90;;;;;;5053758;28;20249;-48
2022/05/05 02:19:18;;;;;;;13.30;8.15;;;12.50;99.90;;;;;;5053691;28;20221;-48
2022/05/05 02:21:43;;;;;;;18.83;8.25;;;12.50;99.90;;;;;;5053615;28;20592;-48
2022/05/05 02:24:09;;;;;;;17.23;8.45;;;12.50;99.90;;;;;;5053542;28;20676;-49
2022/05/05 02:26:35;;;;;;;13.52;8.38;;;12.50;99.90;;;;;;5054016;28;20170;-50
2022/05/05 02:29:02;;;;;;;15.30;9.13;;;12.50;99.90;;;;;;5053490;28;20631;-49
2022/05/05 02:31:27;;;;;;;12.43;8.23;;;12.50;99.90;;;;;;5053496;28;20178;-48
2022/05/05 02:33:53;;;;;;;15.68;8.57;;;12.40;99.90;;;;;;5053349;28;20166;-51
2022/05/05 02:39:03;;;;;;;17.40;8.88;;;12.40;99.90;;;;;;5053654;28;20245;-54
2022/05/05 02:41:28;;;;;;;16.98;9.45;;;12.50;99.90;;;;;;5053172;28;20166;-54
2022/05/05 02:43:54;;;;;;;19.60;8.57;;;12.50;99.90;;;;;;5053093;28;20214;-52
2022/05/05 02:46:19;;;;;;;16.30;9.25;;;12.50;99.90;;;;;;5053111;28;20632;-51
2022/05/05 02:48:45;;;;;;;18.23;9.13;;;12.40;99.90;;;;;;5053039;28;20254;-48
2022/05/05 02:51:11;;;;;;;14.18;8.65;;;12.50;99.90;;;;;;5053051;28;20555;-51
2022/05/05 02:56:21;;;;;;;19.52;9.50;;;12.60;99.90;;;;;;5053189;28;20170;-49
2022/05/05 02:58:46;;;;;;;15.25;10.43;;;12.50;99.90;;;;;;5052866;28;20171;-52
2022/05/05 03:01:12;;;;;;;13.23;9.48;;;12.40;99.90;;;;;;5052881;28;20554;-53
2022/05/05 03:03:38;;;;;;;19.35;10.35;;;12.50;99.90;;;;;;5052621;28;20222;-52
2022/05/05 03:06:03;;;;;;;16.55;9.95;;;12.40;99.90;;;;;;5053104;28;20647;-52
2022/05/05 03:08:29;;;;;;;27.63;10.82;;;12.40;99.90;;;;;;5051411;28;20175;-52
2022/05/05 03:10:54;;;;;;;22.48;10.60;;;12.40;99.90;;;;;;5052702;28;20175;-51
2022/05/05 03:13:20;;;;;;;15.85;10.20;;;12.40;99.90;;;;;;5052654;28;20167;-47
2022/05/05 03:15:45;;;;;;;17.63;10.80;;;12.40;99.90;;;;;;5052582;28;20193;-52
2022/05/05 03:18:11;;;;;;;21.40;11.40;;;12.40;99.90;;;;;;5052494;28;20538;-48
2022/05/05 03:20:36;;;;;;;18.80;10.55;;;12.40;99.90;;;;;;5052542;28;20166;-50
2022/05/05 03:23:02;;;;;;;16.58;10.60;;;12.40;99.90;;;;;;5052641;28;20199;-51
2022/05/05 03:25:28;;;;;;;17.48;11.02;;;12.40;99.90;;;;;;5052359;28;20208;-48
2022/05/05 03:27:54;;;;;;;14.52;10.48;;;12.50;99.90;;;;;;5052308;28;20217;-49
2022/05/05 03:30:19;;;;;;;23.40;11.18;;;12.40;99.90;;;;;;5052338;28;20533;-50
2022/05/05 03:32:45;;;;;;;16.98;10.73;;;12.30;99.90;;;;;;5052301;28;20170;-48
2022/05/05 03:35:11;;;;;;;20.33;11.15;;;12.30;99.90;;;;;;5052245;28;20169;-51
2022/05/05 03:37:36;;;;;;;21.90;11.70;;;12.20;99.90;;;;;;5052192;28;20184;-50
2022/05/05 03:40:02;;;;;;;20.10;11.85;;;12.20;99.90;;;;;;5052528;28;20175;-51
2022/05/05 03:42:28;;;;;;;20.30;11.48;;;12.20;99.90;;;;;;5051548;28;20182;-46
2022/05/05 03:44:54;;;;;;;16.33;11.60;;;12.10;99.90;;;;;;5052099;28;20225;-49
2022/05/05 03:47:19;;;;;;;21.00;12.10;;;12.10;99.90;;;;;;5051945;28;20167;-48
2022/05/05 03:49:45;;;;;;;22.63;13.38;;;12.00;99.90;;;;;;5052297;28;20194;-50
2022/05/05 03:52:10;;;;;;;21.40;11.93;;;12.00;99.90;;;;;;5052048;28;20674;-48
2022/05/05 03:54:36;;;;;;;19.20;12.25;;;12.00;99.90;;;;;;5052285;28;20177;-48
2022/05/05 03:57:01;;;;;;;23.75;13.48;;;12.00;99.90;;;;;;5052293;28;20261;-50
2022/05/05 03:59:27;;;;;;;22.33;12.73;;;12.10;99.90;;;;;;5051919;28;20166;-50
2022/05/05 04:01:52;;;;;;;23.42;13.57;;;12.00;99.90;;;;;;5052134;28;20174;-49
2022/05/05 04:04:19;;;;;;;20.85;13.88;;;12.00;99.90;;;;;;5051649;28;20214;-47
2022/05/05 04:06:45;;;;;;;21.08;12.02;;;12.10;99.90;;;;;;5052108;28;20253;-52
2022/05/05 04:09:10;;;;;;;21.73;12.65;;;12.00;99.90;;;;;;5052002;28;20599;-50
2022/05/05 04:11:36;;;;;;;19.80;12.45;;;12.00;99.90;;;;;;5051822;28;20253;-50
2022/05/05 04:14:03;;;;;;;21.95;12.50;;;12.00;99.90;;;;;;5052017;28;20173;-48
2022/05/05 04:16:32;;;;;;;22.80;13.02;;;11.90;99.90;;;;;;5052035;28;20564;-47
2022/05/05 04:18:58;;;;;;;22.88;14.07;;;12.00;99.90;;;;;;5051993;28;20220;-50
2022/05/05 04:21:24;;;;;;;19.48;13.32;;;11.90;99.90;;;;;;5051812;28;20167;-51
2022/05/05 04:23:50;;;;;;;26.75;13.25;;;11.80;99.90;;;;;;5051864;28;20250;-49
2022/05/05 04:26:17;;;;;;;23.75;14.00;;;11.90;99.90;;;;;;5051930;28;20201;-47
2022/05/05 04:28:46;;;;;;;21.83;13.82;;;11.90;99.90;;;;;;5051743;28;20189;-48
2022/05/05 04:31:14;;;;;;;26.85;14.05;;;11.90;99.90;;;;;;5051675;28;20172;-50
2022/05/05 04:33:40;;;;;;;19.88;14.07;;;11.90;99.90;;;;;;5051877;28;20175;-49
2022/05/05 04:36:07;;;;;;;25.83;14.70;;;11.90;99.90;;;;;;5051606;28;20530;-48
2022/05/05 04:38:34;;;;;;;23.05;14.07;;;11.90;99.90;;;;;;5052119;28;20174;-49
2022/05/05 04:41:00;;;;;;;22.17;13.30;;;11.80;99.90;;;;;;5051836;28;20174;-48
2022/05/05 04:43:25;;;;;;;30.17;15.05;;;11.80;99.90;;;;;;5051451;28;20195;-48
2022/05/05 04:45:51;;;;;;;21.15;14.05;;;11.80;99.90;;;;;;5051433;28;20170;-48
2022/05/05 04:48:16;;;;;;;23.45;14.70;;;11.80;99.90;;;;;;5051411;28;20532;-49
2022/05/05 04:50:42;;;;;;;23.88;14.88;;;11.80;99.90;;;;;;5051422;28;20197;-48
2022/05/05 04:53:07;;;;;;;22.23;14.25;;;11.90;99.90;;;;;;5051318;28;20511;-47
2022/05/05 04:55:33;;;;;;;22.50;13.98;;;11.90;99.90;;;;;;5053599;28;20186;-47
2022/05/05 04:57:59;;;;;;;22.55;13.45;;;11.90;99.90;;;;;;5054935;28;20189;-54
2022/05/05 05:00:24;;;;;;;25.45;13.65;;;12.00;99.90;;;;;;5055094;28;20174;-49
2022/05/05 05:02:50;;;;;;;23.77;13.18;;;12.10;99.90;;;;;;5054678;28;20215;-54
2022/05/05 05:05:16;;;;;;;25.98;14.00;;;12.20;99.90;;;;;;5055101;28;20175;-55
2022/05/05 05:07:41;;;;;;;21.52;12.60;;;12.30;99.90;;;;;;5054786;28;20159;-54
2022/05/05 05:10:08;;;;;;;23.63;13.70;;;12.40;99.90;;;;;;5054968;28;20209;-54
2022/05/05 05:12:34;;;;;;;25.27;14.90;;;12.40;99.90;;;;;;5055185;28;20628;-54
2022/05/05 05:14:59;;;;;;;23.58;13.27;;;12.20;99.90;;;;;;5055144;28;20174;-54
2022/05/05 05:17:25;;;;;;;19.70;12.27;;;12.20;99.90;;;;;;5054800;28;20167;-53
2022/05/05 05:19:50;;;;;;;21.30;13.48;;;12.10;99.90;;;;;;5054757;28;20177;-53
2022/05/05 05:22:16;;;;;;;28.17;13.48;;;12.20;99.90;;;;;;5054711;28;20172;-54
2022/05/05 05:24:41;;;;;;;21.05;12.75;;;12.40;99.90;;;;;;5054510;28;20668;-54
2022/05/05 05:27:07;;;;;;;22.00;12.38;;;12.50;99.90;;;;;;5054627;28;20163;-47
2022/05/05 05:29:32;;;;;;;19.88;12.93;;;12.50;99.90;;;;;;5054875;28;20512;-47
2022/05/05 05:31:58;;;;;;;20.88;13.20;;;12.60;99.90;;;;;;5054796;28;20182;-47
2022/05/05 05:34:24;;;;;;;18.52;12.93;;;12.60;99.90;;;;;;5054697;28;20171;-50
2022/05/05 05:36:49;;;;;;;24.40;13.50;;;12.70;99.90;;;;;;5054686;28;20178;-48
2022/05/05 05:39:17;;;;;;;18.48;13.10;;;12.70;99.90;;;;;;5054649;28;20198;-49
2022/05/05 05:41:43;;;;;;;20.88;12.45;;;12.80;99.90;;;;;;5054723;28;20175;-48
2022/05/05 05:44:08;;;;;;;21.02;12.70;;;12.90;99.90;;;;;;5052919;28;20540;-48
2022/05/05 05:46:34;;;;;;;22.77;13.45;;;12.90;99.90;;;;;;5054566;28;20167;-47
2022/05/05 05:49:00;;;;;;;23.20;12.82;;;13.00;99.90;;;;;;5054203;28;20174;-48
2022/05/05 05:51:25;;;;;;;18.60;13.60;;;13.00;99.90;;;;;;5054269;28;20171;-48
2022/05/05 05:53:51;;;;;;;19.55;12.85;;;13.10;99.90;;;;;;5054388;28;20171;-47
2022/05/05 05:56:18;;;;;;;22.90;13.32;;;13.20;99.90;;;;;;5054127;28;20666;-49
2022/05/05 05:58:43;;;;;;;25.88;13.23;;;13.30;99.90;;;;;;5054043;28;20179;-49
2022/05/05 06:01:09;;;;;;;21.35;13.50;;;13.30;99.90;;;;;;5053959;28;20166;-48
2022/05/05 06:03:53;;;;;;;20.73;13.27;;;13.50;99.90;;;;;;5053999;28;20222;-49
2022/05/05 06:06:20;;;;;;;23.20;11.82;;;13.70;99.90;;;;;;5053439;28;20615;-49
2022/05/05 06:08:47;;;;;;;24.88;14.07;;;13.70;99.90;;;;;;5054036;28;20202;-53
2022/05/05 06:11:13;;;;;;;35.08;14.27;;;13.80;99.90;;;;;;5053804;28;20254;-47
2022/05/05 06:13:39;;;;;;;22.55;12.98;;;13.80;99.90;;;;;;5053931;28;20296;-48
2022/05/05 06:16:06;;;;;;;22.17;13.05;;;13.80;99.90;;;;;;5054031;28;20166;-49
2022/05/05 06:18:32;;;;;;;22.20;13.20;;;13.90;99.90;;;;;;5054281;28;20178;-50
2022/05/05 06:20:58;;;;;;;27.20;13.20;;;13.90;99.90;;;;;;5053911;28;20163;-47
2022/05/05 06:23:24;;;;;;;25.05;14.18;;;13.90;99.90;;;;;;5053495;28;20205;-47
2022/05/05 06:25:49;;;;;;;21.95;12.48;;;14.00;99.90;;;;;;5053672;28;20182;-48
2022/05/05 06:28:15;;;;;;;24.90;14.02;;;14.20;99.90;;;;;;5053462;28;20624;-47
2022/05/05 06:30:40;;;;;;;21.83;12.98;;;14.10;99.90;;;;;;5053402;28;20178;-51
2022/05/05 06:33:06;;;;;;;20.45;12.48;;;14.20;99.90;;;;;;5053450;28;20169;-47
2022/05/05 06:35:31;;;;;;;18.48;13.20;;;14.50;99.90;;;;;;5053711;28;20539;-49
2022/05/05 06:37:57;;;;;;;18.85;12.05;;;14.50;99.90;;;;;;5053205;28;20650;-47
2022/05/05 06:40:22;;;;;;;20.02;13.23;;;14.50;99.90;;;;;;5053254;28;20175;-48
2022/05/05 06:42:48;;;;;;;20.05;12.75;;;14.50;99.90;;;;;;5053051;28;20194;-47
2022/05/05 06:45:14;;;;;;;19.38;13.65;;;14.70;99.90;;;;;;5053169;28;20173;-49
2022/05/05 06:47:40;;;;;;;21.88;13.18;;;14.80;99.90;;;;;;5053122;28;20238;-48
2022/05/05 06:50:07;;;;;;;22.42;13.07;;;14.70;99.90;;;;;;5053062;28;20245;-47
2022/05/05 06:52:32;;;;;;;16.27;11.75;;;14.80;99.90;;;;;;5051865;28;20175;-46
2022/05/05 06:54:58;;;;;;;18.08;12.07;;;14.80;99.90;;;;;;5051672;28;20220;-46
2022/05/05 06:57:24;;;;;;;19.13;12.55;;;14.80;99.90;;;;;;5051444;28;20198;-44
2022/05/05 06:59:49;;;;;;;19.02;11.45;;;14.90;99.90;;;;;;5051819;28;20261;-42
2022/05/05 07:02:15;;;;;;;19.55;11.93;;;15.00;99.90;;;;;;5051417;28;20555;-46
2022/05/05 07:07:24;;;;;;;27.40;16.55;;;15.00;99.90;;;;;;5051704;28;20224;-46
2022/05/05 07:12:34;;;;;;;27.55;12.88;;;15.10;99.90;;;;;;5051744;28;20181;-47
2022/05/05 07:15:00;;;;;;;92.30;17.05;;;15.00;99.90;;;;;;5051340;28;20174;-59
2022/05/05 07:17:26;;;;;;;30.40;12.07;;;14.90;99.90;;;;;;5050370;28;20164;-46
2022/05/05 07:19:52;;;;;;;34.40;13.05;;;15.10;99.90;;;;;;5051097;28;20222;-46
2022/05/05 07:22:18;;;;;;;20.25;11.48;;;15.00;99.90;;;;;;5049858;28;20174;-44
2022/05/05 07:24:44;;;;;;;19.38;11.80;;;15.00;99.90;;;;;;5051185;28;20737;-45
2022/05/05 07:27:10;;;;;;;31.83;12.35;;;15.10;99.90;;;;;;5051087;28;20242;-44
2022/05/05 07:29:37;;;;;;;27.73;11.43;;;15.10;99.90;;;;;;5051112;28;20170;-44
2022/05/05 07:32:04;;;;;;;20.73;12.00;;;15.20;99.90;;;;;;5051554;28;20217;-46
2022/05/05 07:34:30;;;;;;;18.33;11.40;;;15.40;99.90;;;;;;5051125;28;20516;-45
2022/05/05 07:36:55;;;;;;;20.55;10.90;;;15.50;99.90;;;;;;5049367;28;20261;-45
2022/05/05 07:39:21;;;;;;;20.52;11.70;;;15.50;99.90;;;;;;5051160;28;20179;-48
2022/05/05 07:41:46;;;;;;;19.42;11.82;;;15.70;99.90;;;;;;5050847;28;20174;-58
2022/05/05 07:44:12;;;;;;;19.95;12.25;;;15.80;99.90;;;;;;5051020;28;20206;-53
2022/05/05 07:46:37;;;;;;;31.80;12.40;;;15.90;99.90;;;;;;5050963;28;20171;-45
2022/05/05 07:49:05;;;;;;;23.90;13.15;;;16.00;99.90;;;;;;5051142;28;20173;-47
2022/05/05 07:51:32;;;;;;;26.75;12.73;;;16.30;99.90;;;;;;5050998;28;20198;-45
2022/05/05 07:56:43;;;;;;;23.65;12.45;;;16.40;99.90;;;;;;5050837;28;20279;-46
2022/05/05 07:59:09;;;;;;;23.27;12.15;;;16.50;99.90;;;;;;5050841;28;20175;-47
2022/05/05 08:01:34;;;;;;;25.40;11.80;;;16.50;99.90;;;;;;5050954;28;20167;-45
2022/05/05 08:04:00;;;;;;;31.77;12.65;;;16.70;99.90;;;;;;5050300;28;20253;-43
2022/05/05 08:06:26;;;;;;;17.98;11.57;;;16.70;99.90;;;;;;5050429;28;20196;-53
2022/05/05 08:08:51;;;;;;;30.67;11.55;;;16.80;99.90;;;;;;5050489;28;20220;-45
2022/05/05 08:11:17;;;;;;;23.67;11.23;;;17.00;99.90;;;;;;5049419;28;20197;-47
2022/05/05 08:13:43;;;;;;;20.33;10.23;;;17.10;99.90;;;;;;5050732;28;20170;-48
2022/05/05 08:16:09;;;;;;;26.50;10.43;;;16.90;99.90;;;;;;5050328;28;20167;-48
2022/05/05 08:18:38;;;;;;;21.98;10.07;;;17.00;99.90;;;;;;5050615;28;20174;-45
2022/05/05 08:21:06;;;;;;;22.38;9.65;;;16.80;99.90;;;;;;5050653;28;20163;-47
2022/05/05 08:23:33;;;;;;;21.67;10.38;;;17.00;99.90;;;;;;5050925;28;20654;-51
2022/05/05 08:28:43;;;;;;;26.58;10.70;;;17.40;99.90;;;;;;5052589;28;20702;-54
2022/05/05 08:31:10;;;;;;;16.00;9.50;;;17.60;99.90;;;;;;5054357;28;20167;-51
2022/05/05 08:33:36;;;;;;;22.70;10.43;;;17.70;99.90;;;;;;5054937;28;20178;-47
2022/05/05 08:36:03;;;;;;;25.40;11.40;;;17.70;99.90;;;;;;5054917;28;20228;-50
2022/05/05 08:38:28;;;;;;;20.90;10.23;;;17.50;99.90;;;;;;5054688;28;20173;-47
2022/05/05 08:40:54;;;;;;;23.63;9.68;;;17.90;99.90;;;;;;5055526;28;20162;-50
2022/05/05 08:43:19;;;;;;;23.25;9.25;;;18.20;99.90;;;;;;5055427;28;20213;-46
2022/05/05 08:45:45;;;;;;;20.83;9.20;;;18.30;99.90;;;;;;5055467;28;20163;-48
2022/05/05 08:48:12;;;;;;;19.55;9.55;;;18.40;99.90;;;;;;5055367;28;20174;-46
2022/05/05 08:50:46;;;;;;;24.75;10.35;;;18.50;99.90;;;;;;5055504;28;20526;-46
2022/05/05 08:53:14;;;;;;;24.60;9.13;;;18.50;99.90;;;;;;5055527;28;20171;-49
2022/05/05 08:55:41;;;;;;;25.17;9.68;;;18.50;99.90;;;;;;5055469;28;20254;-48
2022/05/05 08:58:06;;;;;;;18.77;9.15;;;18.50;99.90;;;;;;5055179;28;20191;-48
2022/05/05 09:00:32;;;;;;;19.60;9.57;;;18.60;99.90;;;;;;5054118;28;20190;-47
2022/05/05 09:03:04;;;;;;;16.52;9.55;;;18.80;99.90;;;;;;5054867;28;20280;-48
2022/05/05 09:05:44;;;;;;;15.75;9.15;;;18.70;99.90;;;;;;5055321;28;20177;-47
2022/05/05 09:08:12;;;;;;;16.20;9.05;;;18.60;99.90;;;;;;5055046;28;20178;-50
2022/05/05 09:10:50;;;;;;;24.52;9.52;;;18.50;99.90;;;;;;5054883;28;20159;-48
2022/05/05 09:13:21;;;;;;;17.05;8.88;;;18.50;99.90;;;;;;5053727;28;20623;-48
2022/05/05 09:15:47;;;;;;;12.60;8.27;;;18.60;99.90;;;;;;5055066;28;20178;-50
2022/05/05 09:18:18;;;;;;;22.52;9.82;;;18.70;99.90;;;;;;5054784;28;20529;-48
2022/05/05 09:20:45;;;;;;;20.73;8.70;;;18.60;99.90;;;;;;5054821;28;20155;-47
2022/05/05 09:23:28;;;;;;;15.07;9.57;;;18.40;99.90;;;;;;5054486;28;20285;-47
2022/05/05 09:25:53;;;;;;;17.13;8.63;;;18.50;99.90;;;;;;5054863;28;20170;-47
2022/05/05 09:28:35;;;;;;;16.15;8.43;;;18.80;99.90;;;;;;5053354;28;20173;-47
2022/05/05 09:31:04;;;;;;;13.57;8.75;;;19.10;99.90;;;;;;5053871;28;20171;-47
2022/05/05 09:33:40;;;;;;;13.90;9.52;;;19.10;99.90;;;;;;5054766;28;20201;-49
2022/05/05 09:36:16;;;;;;;21.48;10.27;;;19.10;99.90;;;;;;5054429;28;20177;-46
2022/05/05 09:38:52;;;;;;;11.52;9.10;;;19.00;99.90;;;;;;5054402;28;20177;-48
2022/05/05 09:41:22;;;;;;;21.80;11.15;;;19.00;99.90;;;;;;5053903;28;20178;-49
2022/05/05 09:43:48;;;;;;;17.17;11.07;;;19.00;99.90;;;;;;5054517;28;20220;-49
2022/05/05 09:46:25;;;;;;;16.83;10.38;;;19.30;99.90;;;;;;5054381;28;20162;-46
2022/05/05 09:48:52;;;;;;;19.63;10.95;;;19.30;99.90;;;;;;5054181;28;20659;-48
2022/05/05 09:51:18;;;;;;;19.40;11.75;;;19.30;99.90;;;;;;5054151;28;20186;-48
2022/05/05 09:59:30;;;;;;;18.40;11.27;;;19.70;99.40;;;;;;5054165;28;20178;-49
2022/05/05 10:02:04;;;;;;;18.35;10.93;;;19.70;98.90;;;;;;5053955;28;20167;-48
2022/05/05 10:04:33;;;;;;;15.40;11.32;;;19.70;98.70;;;;;;5054133;28;20311;-48
2022/05/05 10:07:02;;;;;;;17.85;11.27;;;19.90;98.00;;;;;;5054145;28;20174;-48
2022/05/05 10:09:28;;;;;;;19.63;11.45;;;20.10;97.80;;;;;;5054080;28;20630;-50
2022/05/05 10:11:55;;;;;;;16.15;11.65;;;19.80;96.70;;;;;;5053837;28;20240;-48
2022/05/05 10:14:20;;;;;;;18.65;11.25;;;20.10;97.80;;;;;;5053764;28;20171;-50
2022/05/05 10:16:46;;;;;;;17.02;10.73;;;20.50;98.40;;;;;;5053789;28;20162;-49
2022/05/05 10:19:15;;;;;;;13.73;10.20;;;20.40;97.70;;;;;;5053617;28;20170;-49
2022/05/05 10:22:16;;;;;;;18.15;8.90;;;20.50;97.20;;;;;;5053661;28;20684;-50
2022/05/05 10:24:50;;;;;;;14.35;9.38;;;20.60;97.20;;;;;;5053585;28;20260;-50
2022/05/05 10:27:16;;;;;;;15.05;9.50;;;20.50;95.70;;;;;;5053791;28;20582;-49
2022/05/05 10:29:43;;;;;;;13.57;9.85;;;20.30;95.40;;;;;;5053726;28;20640;-50
2022/05/05 10:32:16;;;;;;;16.02;9.45;;;20.20;95.50;;;;;;5053654;28;20171;-49
2022/05/05 10:34:45;;;;;;;15.00;9.93;;;20.10;96.30;;;;;;5053452;28;20160;-50
2022/05/05 10:37:17;;;;;;;13.07;10.40;;;20.50;96.60;;;;;;5053344;28;20194;-48
2022/05/05 10:40:06;;;;;;;13.70;10.10;;;20.50;94.60;;;;;;5053527;28;20190;-48
2022/05/05 10:42:44;;;;;;;13.48;9.52;;;20.40;95.50;;;;;;5053512;28;20162;-49
2022/05/05 10:45:31;;;;;;;15.57;10.02;;;20.70;95.90;;;;;;5053403;28;20190;-48
2022/05/05 10:47:58;;;;;;;15.50;9.30;;;21.00;94.30;;;;;;5053369;28;20208;-49
2022/05/05 10:50:36;;;;;;;20.63;10.15;;;21.00;94.00;;;;;;5053017;28;20174;-49
2022/05/05 10:53:02;;;;;;;17.50;10.88;;;21.20;93.60;;;;;;5053559;28;20174;-49
2022/05/05 10:55:34;;;;;;;13.35;10.10;;;21.20;93.90;;;;;;5052981;28;20167;-49
2022/05/05 10:58:00;;;;;;;14.85;10.18;;;21.10;93.20;;;;;;5052899;28;20175;-48
2022/05/05 11:00:41;;;;;;;13.88;10.50;;;21.40;93.20;;;;;;5052943;28;20174;-49
2022/05/05 11:03:06;;;;;;;13.95;9.52;;;21.30;93.40;;;;;;5052534;28;20218;-48
2022/05/05 11:05:38;;;;;;;20.83;10.02;;;21.60;92.30;;;;;;5053153;28;20170;-50
2022/05/05 11:08:14;;;;;;;15.98;10.25;;;21.80;92.50;;;;;;5053047;28;20249;-49
2022/05/05 11:13:55;;;;;;;16.45;10.07;;;22.00;90.90;;;;;;5052905;28;20288;-50
2022/05/05 11:22:17;;;;;;;15.07;9.77;;;21.90;91.50;;;;;;5052450;28;20185;-48
2022/05/05 11:24:48;;;;;;;14.93;8.93;;;21.80;91.10;;;;;;5052603;28;20210;-48
2022/05/05 11:27:24;;;;;;;14.38;9.15;;;21.30;91.60;;;;;;5052510;28;20171;-48
2022/05/05 11:29:51;;;;;;;17.92;10.35;;;21.40;92.20;;;;;;5052398;28;20181;-48
2022/05/05 11:32:18;;;;;;;15.50;9.27;;;21.20;91.90;;;;;;5052328;28;20163;-47
2022/05/05 11:34:45;;;;;;;15.63;10.45;;;21.20;90.60;;;;;;5052346;28;20179;-46
2022/05/05 11:37:11;;;;;;;17.38;9.40;;;21.00;91.40;;;;;;5052200;28;20221;-47
2022/05/05 11:39:38;;;;;;;12.95;8.45;;;21.10;92.00;;;;;;5052183;28;20174;-48
2022/05/05 11:42:05;;;;;;;16.58;9.95;;;21.30;92.20;;;;;;5052579;28;20253;-48
2022/05/05 11:44:36;;;;;;;14.63;9.65;;;21.20;92.30;;;;;;5052398;28;20677;-47
2022/05/05 11:47:16;;;;;;;18.92;9.75;;;21.20;93.30;;;;;;5052494;28;20621;-47
2022/05/05 11:49:44;;;;;;;15.98;9.55;;;21.60;91.60;;;;;;5052320;28;20171;-48
2022/05/05 11:52:11;;;;;;;13.85;9.70;;;21.90;92.10;;;;;;5051853;28;20171;-47
2022/05/05 11:54:37;;;;;;;14.23;9.45;;;21.80;91.30;;;;;;5052273;28;20181;-47
2022/05/05 11:57:03;;;;;;;14.55;10.02;;;21.90;92.70;;;;;;5052433;28;20162;-47
2022/05/05 12:02:20;;;;;;;17.83;10.43;;;22.10;91.70;;;;;;5051445;28;20586;-46
2022/05/05 12:04:49;;;;;;;15.50;10.55;;;21.70;91.30;;;;;;5051638;28;20208;-47
2022/05/05 12:07:23;;;;;;;15.45;9.32;;;21.10;90.70;;;;;;5051935;28;20170;-47
2022/05/05 12:09:54;;;;;;;16.55;9.93;;;21.50;92.60;;;;;;5051848;28;20253;-46
2022/05/05 12:12:21;;;;;;;15.60;10.23;;;21.90;91.10;;;;;;5051991;28;20169;-48
2022/05/05 12:14:49;;;;;;;17.52;10.52;;;21.90;90.10;;;;;;5051623;28;20182;-47
2022/05/05 12:17:18;;;;;;;16.80;9.88;;;22.20;90.70;;;;;;5051982;28;20258;-47
2022/05/05 12:19:56;;;;;;;18.77;9.90;;;22.00;90.30;;;;;;5051806;28;20664;-48
2022/05/05 12:22:27;;;;;;;12.20;8.93;;;21.70;91.70;;;;;;5051930;28;20174;-46
2022/05/05 12:24:53;;;;;;;16.98;9.52;;;21.50;91.10;;;;;;5051587;28;20679;-47
2022/05/05 12:27:22;;;;;;;13.85;8.73;;;21.20;92.30;;;;;;5051711;28;20173;-47
2022/05/05 12:29:48;;;;;;;13.85;9.82;;;21.00;91.30;;;;;;5051594;28;20187;-47
2022/05/05 12:32:16;;;;;;;21.00;9.20;;;21.00;91.00;;;;;;5051602;28;20163;-47
2022/05/05 12:34:43;;;;;;;19.10;9.90;;;21.10;92.00;;;;;;5051590;28;20742;-46
2022/05/05 12:37:19;;;;;;;17.63;9.88;;;20.90;91.90;;;;;;5051559;28;20181;-46
2022/05/05 12:39:55;;;;;;;15.85;9.52;;;21.30;91.20;;;;;;5051783;28;20650;-46
2022/05/05 12:42:21;;;;;;;15.13;8.02;;;21.80;90.30;;;;;;5051422;28;20713;-47
2022/05/05 12:44:49;;;;;;;13.65;9.10;;;21.50;91.60;;;;;;5051718;28;20302;-47
2022/05/05 12:47:23;;;;;;;12.73;8.63;;;20.90;90.50;;;;;;5051714;28;20229;-47
2022/05/05 12:49:48;;;;;;;15.10;8.63;;;20.90;90.70;;;;;;5051711;28;20227;-47
2022/05/05 13:00:40;;;;;;;11.82;7.95;;;20.50;90.10;;;;;;5051356;28;20178;-46
2022/05/05 13:03:05;;;;;;;11.43;7.93;;;20.50;90.90;;;;;;5051420;28;20214;-47
2022/05/05 13:05:31;;;;;;;14.88;8.50;;;20.40;91.30;;;;;;5051654;28;20171;-47
2022/05/05 13:07:56;;;;;;;12.45;8.27;;;20.40;91.20;;;;;;5051606;28;20167;-47
2022/05/05 13:10:22;;;;;;;17.13;8.20;;;20.40;92.40;;;;;;5051284;28;20167;-47
2022/05/05 13:12:47;;;;;;;11.40;8.00;;;20.40;92.40;;;;;;5051233;28;20171;-47
2022/05/05 13:15:13;;;;;;;12.23;7.97;;;20.60;93.00;;;;;;5052723;28;20253;-46
2022/05/05 13:17:38;;;;;;;10.98;8.52;;;20.60;92.40;;;;;;5055193;28;20163;-46
2022/05/05 13:20:05;;;;;;;11.05;7.53;;;20.70;90.90;;;;;;5055110;28;20163;-47
2022/05/05 13:22:30;;;;;;;13.07;8.20;;;20.60;91.30;;;;;;5054805;28;20167;-47
2022/05/05 13:24:56;;;;;;;13.30;8.52;;;20.50;92.30;;;;;;5054650;28;20285;-46